sensor_id;sensor_type;location;lat;lon;timestamp;P1;durP1;ratioP1;P2;durP2;ratioP2
16159;SDS011;8185;57.818;15.224;2022-09-13T00:00:39;6.73;;;4.23;;
16159;SDS011;8185;57.818;15.224;2022-09-13T00:03:07;3.63;;;3.33;;
16159;SDS011;8185;57.818;15.224;2022-09-13T00:05:35;3.87;;;3.57;;
16159;SDS011;8185;57.818;15.224;2022-09-13T00:08:03;4.37;;;3.33;;
16159;SDS011;8185;57.818;15.224;2022-09-13T00:10:32;3.70;;;3.40;;
16159;SDS011;8185;57.818;15.224;2022-09-13T00:13:01;3.87;;;3.57;;
16159;SDS011;8185;57.818;15.224;2022-09-13T00:15:29;5.80;;;3.20;;
16159;SDS011;8185;57.818;15.224;2022-09-13T00:17:56;3.53;;;3.23;;
16159;SDS011;8185;57.818;15.224;2022-09-13T00:20:24;3.57;;;3.20;;
16159;SDS011;8185;57.818;15.224;2022-09-13T00:22:52;3.43;;;3.13;;
16159;SDS011;8185;57.818;15.224;2022-09-13T00:25:19;4.50;;;2.83;;
16159;SDS011;8185;57.818;15.224;2022-09-13T00:27:46;4.03;;;2.90;;
16159;SDS011;8185;57.818;15.224;2022-09-13T00:30:15;3.30;;;3.00;;
16159;SDS011;8185;57.818;15.224;2022-09-13T00:32:42;3.07;;;2.80;;
16159;SDS011;8185;57.818;15.224;2022-09-13T00:35:10;3.33;;;2.80;;
16159;SDS011;8185;57.818;15.224;2022-09-13T00:37:37;2.43;;;2.23;;
16159;SDS011;8185;57.818;15.224;2022-09-13T00:40:05;3.30;;;3.00;;
16159;SDS011;8185;57.818;15.224;2022-09-13T00:42:33;2.70;;;2.40;;
16159;SDS011;8185;57.818;15.224;2022-09-13T00:45:02;3.13;;;2.93;;
16159;SDS011;8185;57.818;15.224;2022-09-13T00:47:44;3.27;;;2.97;;
16159;SDS011;8185;57.818;15.224;2022-09-13T00:50:16;2.60;;;2.37;;
16159;SDS011;8185;57.818;15.224;2022-09-13T00:52:47;3.03;;;2.53;;
16159;SDS011;8185;57.818;15.224;2022-09-13T00:55:19;3.17;;;2.70;;
16159;SDS011;8185;57.818;15.224;2022-09-13T00:57:49;4.03;;;2.57;;
16159;SDS011;8185;57.818;15.224;2022-09-13T01:00:19;3.03;;;2.73;;
16159;SDS011;8185;57.818;15.224;2022-09-13T01:02:47;2.80;;;2.60;;
16159;SDS011;8185;57.818;15.224;2022-09-13T01:05:19;5.33;;;2.80;;
16159;SDS011;8185;57.818;15.224;2022-09-13T01:07:49;2.80;;;2.40;;
16159;SDS011;8185;57.818;15.224;2022-09-13T01:10:16;2.70;;;2.50;;
16159;SDS011;8185;57.818;15.224;2022-09-13T01:12:45;4.57;;;2.90;;
16159;SDS011;8185;57.818;15.224;2022-09-13T01:15:18;2.70;;;2.50;;
16159;SDS011;8185;57.818;15.224;2022-09-13T01:17:48;2.47;;;2.27;;
16159;SDS011;8185;57.818;15.224;2022-09-13T01:20:18;2.87;;;2.53;;
16159;SDS011;8185;57.818;15.224;2022-09-13T01:28:59;2.47;;;2.27;;
16159;SDS011;8185;57.818;15.224;2022-09-13T01:31:46;8.90;;;2.93;;
16159;SDS011;8185;57.818;15.224;2022-09-13T01:34:23;2.97;;;2.60;;
16159;SDS011;8185;57.818;15.224;2022-09-13T01:37:05;2.93;;;2.60;;
16159;SDS011;8185;57.818;15.224;2022-09-13T01:39:52;2.70;;;2.50;;
16159;SDS011;8185;57.818;15.224;2022-09-13T01:42:38;3.20;;;2.90;;
16159;SDS011;8185;57.818;15.224;2022-09-13T01:45:18;2.40;;;2.20;;
16159;SDS011;8185;57.818;15.224;2022-09-13T01:47:54;3.23;;;2.40;;
16159;SDS011;8185;57.818;15.224;2022-09-13T01:50:28;7.47;;;2.70;;
16159;SDS011;8185;57.818;15.224;2022-09-13T01:53:06;4.33;;;2.43;;
16159;SDS011;8185;57.818;15.224;2022-09-13T01:55:41;2.67;;;2.47;;
16159;SDS011;8185;57.818;15.224;2022-09-13T01:58:15;2.87;;;2.57;;
16159;SDS011;8185;57.818;15.224;2022-09-13T02:00:50;2.83;;;2.60;;
16159;SDS011;8185;57.818;15.224;2022-09-13T02:03:28;3.60;;;2.70;;
16159;SDS011;8185;57.818;15.224;2022-09-13T02:06:03;3.50;;;2.57;;
16159;SDS011;8185;57.818;15.224;2022-09-13T02:08:36;2.77;;;2.57;;
16159;SDS011;8185;57.818;15.224;2022-09-13T02:11:08;4.40;;;2.70;;
16159;SDS011;8185;57.818;15.224;2022-09-13T02:13:38;4.03;;;2.87;;
16159;SDS011;8185;57.818;15.224;2022-09-13T02:16:10;4.17;;;3.00;;
16159;SDS011;8185;57.818;15.224;2022-09-13T02:18:44;2.93;;;2.60;;
16159;SDS011;8185;57.818;15.224;2022-09-13T02:21:15;4.23;;;2.80;;
16159;SDS011;8185;57.818;15.224;2022-09-13T02:23:47;2.93;;;2.67;;
16159;SDS011;8185;57.818;15.224;2022-09-13T02:26:17;3.23;;;2.50;;
16159;SDS011;8185;57.818;15.224;2022-09-13T02:28:47;3.13;;;2.80;;
16159;SDS011;8185;57.818;15.224;2022-09-13T02:31:20;3.00;;;2.70;;
16159;SDS011;8185;57.818;15.224;2022-09-13T02:33:56;2.43;;;2.23;;
16159;SDS011;8185;57.818;15.224;2022-09-13T02:36:29;3.60;;;2.73;;
16159;SDS011;8185;57.818;15.224;2022-09-13T02:39:01;3.03;;;2.40;;
16159;SDS011;8185;57.818;15.224;2022-09-13T02:41:32;2.60;;;2.40;;
16159;SDS011;8185;57.818;15.224;2022-09-13T02:44:06;3.57;;;2.27;;
16159;SDS011;8185;57.818;15.224;2022-09-13T02:46:45;5.30;;;2.30;;
16159;SDS011;8185;57.818;15.224;2022-09-13T02:49:24;2.60;;;2.10;;
16159;SDS011;8185;57.818;15.224;2022-09-13T02:51:57;2.90;;;2.17;;
16159;SDS011;8185;57.818;15.224;2022-09-13T02:54:31;3.13;;;2.83;;
16159;SDS011;8185;57.818;15.224;2022-09-13T02:57:04;2.47;;;2.27;;
16159;SDS011;8185;57.818;15.224;2022-09-13T02:59:35;2.43;;;2.23;;
16159;SDS011;8185;57.818;15.224;2022-09-13T03:02:04;2.70;;;2.20;;
16159;SDS011;8185;57.818;15.224;2022-09-13T03:04:36;3.03;;;2.73;;
16159;SDS011;8185;57.818;15.224;2022-09-13T03:07:05;2.90;;;2.47;;
16159;SDS011;8185;57.818;15.224;2022-09-13T03:09:36;5.40;;;3.37;;
16159;SDS011;8185;57.818;15.224;2022-09-13T03:12:19;3.27;;;2.57;;
16159;SDS011;8185;57.818;15.224;2022-09-13T03:15:05;5.30;;;2.60;;
16159;SDS011;8185;57.818;15.224;2022-09-13T03:17:43;3.27;;;2.67;;
16159;SDS011;8185;57.818;15.224;2022-09-13T03:20:17;3.43;;;3.13;;
16159;SDS011;8185;57.818;15.224;2022-09-13T03:22:59;4.17;;;3.00;;
16159;SDS011;8185;57.818;15.224;2022-09-13T03:25:57;2.87;;;2.60;;
16159;SDS011;8185;57.818;15.224;2022-09-13T03:28:36;2.93;;;2.73;;
16159;SDS011;8185;57.818;15.224;2022-09-13T03:31:14;4.53;;;2.77;;
16159;SDS011;8185;57.818;15.224;2022-09-13T03:33:47;3.20;;;2.90;;
16159;SDS011;8185;57.818;15.224;2022-09-13T03:36:26;3.80;;;3.00;;
16159;SDS011;8185;57.818;15.224;2022-09-13T03:39:02;2.87;;;2.67;;
16159;SDS011;8185;57.818;15.224;2022-09-13T03:41:35;3.60;;;2.97;;
16159;SDS011;8185;57.818;15.224;2022-09-13T03:44:08;3.50;;;2.77;;
16159;SDS011;8185;57.818;15.224;2022-09-13T03:46:40;2.77;;;2.20;;
16159;SDS011;8185;57.818;15.224;2022-09-13T03:49:10;2.80;;;2.50;;
16159;SDS011;8185;57.818;15.224;2022-09-13T03:51:42;3.97;;;2.60;;
16159;SDS011;8185;57.818;15.224;2022-09-13T03:54:13;2.77;;;2.57;;
16159;SDS011;8185;57.818;15.224;2022-09-13T03:56:42;3.20;;;2.50;;
16159;SDS011;8185;57.818;15.224;2022-09-13T03:59:30;7.73;;;2.77;;
16159;SDS011;8185;57.818;15.224;2022-09-13T04:01:57;2.70;;;2.50;;
16159;SDS011;8185;57.818;15.224;2022-09-13T04:04:25;3.33;;;2.80;;
16159;SDS011;8185;57.818;15.224;2022-09-13T04:06:53;3.40;;;2.93;;
16159;SDS011;8185;57.818;15.224;2022-09-13T04:09:21;4.50;;;2.63;;
16159;SDS011;8185;57.818;15.224;2022-09-13T04:11:48;4.77;;;2.93;;
16159;SDS011;8185;57.818;15.224;2022-09-13T04:14:15;2.70;;;2.50;;
16159;SDS011;8185;57.818;15.224;2022-09-13T04:16:43;3.23;;;2.90;;
16159;SDS011;8185;57.818;15.224;2022-09-13T04:19:10;3.70;;;2.90;;
16159;SDS011;8185;57.818;15.224;2022-09-13T04:21:38;3.10;;;2.73;;
16159;SDS011;8185;57.818;15.224;2022-09-13T04:24:06;3.27;;;2.80;;
16159;SDS011;8185;57.818;15.224;2022-09-13T04:26:34;2.93;;;2.73;;
16159;SDS011;8185;57.818;15.224;2022-09-13T04:29:01;3.60;;;2.53;;
16159;SDS011;8185;57.818;15.224;2022-09-13T04:31:28;3.20;;;2.37;;
16159;SDS011;8185;57.818;15.224;2022-09-13T04:33:56;3.70;;;2.90;;
16159;SDS011;8185;57.818;15.224;2022-09-13T04:36:23;4.03;;;3.50;;
16159;SDS011;8185;57.818;15.224;2022-09-13T04:38:50;5.53;;;2.83;;
16159;SDS011;8185;57.818;15.224;2022-09-13T04:41:19;2.70;;;2.50;;
16159;SDS011;8185;57.818;15.224;2022-09-13T04:43:47;6.40;;;2.87;;
16159;SDS011;8185;57.818;15.224;2022-09-13T04:46:15;3.23;;;2.77;;
16159;SDS011;8185;57.818;15.224;2022-09-13T04:48:47;2.90;;;2.60;;
16159;SDS011;8185;57.818;15.224;2022-09-13T04:51:15;4.30;;;2.97;;
16159;SDS011;8185;57.818;15.224;2022-09-13T04:53:42;3.17;;;2.87;;
16159;SDS011;8185;57.818;15.224;2022-09-13T04:56:10;3.30;;;2.93;;
16159;SDS011;8185;57.818;15.224;2022-09-13T04:58:40;3.70;;;2.90;;
16159;SDS011;8185;57.818;15.224;2022-09-13T05:01:08;3.37;;;2.80;;
16159;SDS011;8185;57.818;15.224;2022-09-13T05:03:36;4.40;;;3.00;;
16159;SDS011;8185;57.818;15.224;2022-09-13T05:06:04;3.50;;;3.20;;
16159;SDS011;8185;57.818;15.224;2022-09-13T05:08:33;4.43;;;2.73;;
16159;SDS011;8185;57.818;15.224;2022-09-13T05:11:00;3.07;;;2.77;;
16159;SDS011;8185;57.818;15.224;2022-09-13T05:13:28;2.87;;;2.63;;
16159;SDS011;8185;57.818;15.224;2022-09-13T05:15:57;2.80;;;2.60;;
16159;SDS011;8185;57.818;15.224;2022-09-13T05:18:26;3.47;;;2.70;;
16159;SDS011;8185;57.818;15.224;2022-09-13T05:20:54;3.07;;;2.80;;
16159;SDS011;8185;57.818;15.224;2022-09-13T05:23:22;3.20;;;2.70;;
16159;SDS011;8185;57.818;15.224;2022-09-13T05:25:53;3.63;;;3.27;;
16159;SDS011;8185;57.818;15.224;2022-09-13T05:28:20;4.10;;;2.77;;
16159;SDS011;8185;57.818;15.224;2022-09-13T05:30:54;2.90;;;2.70;;
16159;SDS011;8185;57.818;15.224;2022-09-13T05:33:24;2.93;;;2.63;;
16159;SDS011;8185;57.818;15.224;2022-09-13T05:35:53;2.60;;;2.40;;
16159;SDS011;8185;57.818;15.224;2022-09-13T05:38:20;2.70;;;2.50;;
16159;SDS011;8185;57.818;15.224;2022-09-13T05:40:52;3.30;;;2.70;;
16159;SDS011;8185;57.818;15.224;2022-09-13T05:43:21;2.73;;;2.53;;
16159;SDS011;8185;57.818;15.224;2022-09-13T05:45:48;3.20;;;2.80;;
16159;SDS011;8185;57.818;15.224;2022-09-13T05:48:17;2.40;;;2.20;;
16159;SDS011;8185;57.818;15.224;2022-09-13T05:50:44;2.30;;;2.10;;
16159;SDS011;8185;57.818;15.224;2022-09-13T05:53:11;3.53;;;2.57;;
16159;SDS011;8185;57.818;15.224;2022-09-13T05:55:39;3.70;;;2.43;;
16159;SDS011;8185;57.818;15.224;2022-09-13T05:58:06;3.50;;;2.70;;
16159;SDS011;8185;57.818;15.224;2022-09-13T06:00:33;2.70;;;2.50;;
16159;SDS011;8185;57.818;15.224;2022-09-13T06:03:00;4.37;;;2.60;;
16159;SDS011;8185;57.818;15.224;2022-09-13T06:05:29;3.03;;;2.50;;
16159;SDS011;8185;57.818;15.224;2022-09-13T06:07:56;2.20;;;2.10;;
16159;SDS011;8185;57.818;15.224;2022-09-13T06:10:24;2.40;;;2.20;;
16159;SDS011;8185;57.818;15.224;2022-09-13T06:12:51;2.70;;;2.40;;
16159;SDS011;8185;57.818;15.224;2022-09-13T06:15:18;2.63;;;2.43;;
16159;SDS011;8185;57.818;15.224;2022-09-13T06:17:46;3.23;;;2.90;;
16159;SDS011;8185;57.818;15.224;2022-09-13T06:20:13;2.80;;;2.47;;
16159;SDS011;8185;57.818;15.224;2022-09-13T06:22:42;3.53;;;2.67;;
16159;SDS011;8185;57.818;15.224;2022-09-13T06:25:09;3.90;;;3.10;;
16159;SDS011;8185;57.818;15.224;2022-09-13T06:27:36;2.73;;;2.53;;
16159;SDS011;8185;57.818;15.224;2022-09-13T06:30:04;2.53;;;2.33;;
16159;SDS011;8185;57.818;15.224;2022-09-13T06:32:33;2.50;;;2.30;;
16159;SDS011;8185;57.818;15.224;2022-09-13T06:35:00;2.50;;;2.30;;
16159;SDS011;8185;57.818;15.224;2022-09-13T06:37:27;2.20;;;2.10;;
16159;SDS011;8185;57.818;15.224;2022-09-13T06:39:56;2.30;;;2.10;;
16159;SDS011;8185;57.818;15.224;2022-09-13T06:42:23;2.63;;;2.23;;
16159;SDS011;8185;57.818;15.224;2022-09-13T06:44:51;1.90;;;1.70;;
16159;SDS011;8185;57.818;15.224;2022-09-13T06:47:18;2.10;;;1.90;;
16159;SDS011;8185;57.818;15.224;2022-09-13T06:49:45;1.70;;;1.60;;
16159;SDS011;8185;57.818;15.224;2022-09-13T06:52:12;1.40;;;1.30;;
16159;SDS011;8185;57.818;15.224;2022-09-13T06:54:40;1.30;;;1.20;;
16159;SDS011;8185;57.818;15.224;2022-09-13T06:57:09;1.27;;;1.17;;
16159;SDS011;8185;57.818;15.224;2022-09-13T06:59:36;0.90;;;0.90;;
16159;SDS011;8185;57.818;15.224;2022-09-13T07:02:03;1.00;;;1.00;;
16159;SDS011;8185;57.818;15.224;2022-09-13T07:04:31;1.27;;;1.10;;
16159;SDS011;8185;57.818;15.224;2022-09-13T07:06:58;0.70;;;0.70;;
16159;SDS011;8185;57.818;15.224;2022-09-13T07:09:25;1.00;;;1.00;;
16159;SDS011;8185;57.818;15.224;2022-09-13T07:11:53;2.80;;;1.30;;
16159;SDS011;8185;57.818;15.224;2022-09-13T07:14:23;2.83;;;2.00;;
16159;SDS011;8185;57.818;15.224;2022-09-13T07:16:52;1.93;;;1.60;;
16159;SDS011;8185;57.818;15.224;2022-09-13T07:19:20;1.80;;;1.70;;
16159;SDS011;8185;57.818;15.224;2022-09-13T07:21:48;1.80;;;1.70;;
16159;SDS011;8185;57.818;15.224;2022-09-13T07:24:15;1.80;;;1.70;;
16159;SDS011;8185;57.818;15.224;2022-09-13T07:26:43;2.03;;;1.83;;
16159;SDS011;8185;57.818;15.224;2022-09-13T07:29:11;2.40;;;2.10;;
16159;SDS011;8185;57.818;15.224;2022-09-13T07:31:42;2.13;;;1.97;;
16159;SDS011;8185;57.818;15.224;2022-09-13T07:34:12;1.90;;;1.80;;
16159;SDS011;8185;57.818;15.224;2022-09-13T07:36:40;2.50;;;1.60;;
16159;SDS011;8185;57.818;15.224;2022-09-13T07:39:09;3.17;;;1.80;;
16159;SDS011;8185;57.818;15.224;2022-09-13T07:41:36;1.70;;;1.60;;
16159;SDS011;8185;57.818;15.224;2022-09-13T07:44:03;2.00;;;1.90;;
16159;SDS011;8185;57.818;15.224;2022-09-13T07:46:33;1.60;;;1.50;;
16159;SDS011;8185;57.818;15.224;2022-09-13T07:49:05;2.07;;;1.90;;
16159;SDS011;8185;57.818;15.224;2022-09-13T07:51:34;2.53;;;1.60;;
16159;SDS011;8185;57.818;15.224;2022-09-13T07:54:05;1.60;;;1.50;;
16159;SDS011;8185;57.818;15.224;2022-09-13T07:56:35;1.97;;;1.80;;
16159;SDS011;8185;57.818;15.224;2022-09-13T07:59:04;2.00;;;1.90;;
16159;SDS011;8185;57.818;15.224;2022-09-13T08:01:33;1.53;;;1.33;;
16159;SDS011;8185;57.818;15.224;2022-09-13T08:04:03;1.57;;;1.40;;
16159;SDS011;8185;57.818;15.224;2022-09-13T08:06:34;1.53;;;1.40;;
16159;SDS011;8185;57.818;15.224;2022-09-13T08:09:03;1.83;;;1.73;;
16159;SDS011;8185;57.818;15.224;2022-09-13T08:11:32;1.60;;;1.50;;
16159;SDS011;8185;57.818;15.224;2022-09-13T08:14:01;1.80;;;1.70;;
16159;SDS011;8185;57.818;15.224;2022-09-13T08:16:29;1.80;;;1.60;;
16159;SDS011;8185;57.818;15.224;2022-09-13T08:18:58;2.03;;;1.80;;
16159;SDS011;8185;57.818;15.224;2022-09-13T08:21:31;2.40;;;2.10;;
16159;SDS011;8185;57.818;15.224;2022-09-13T08:24:00;2.07;;;1.90;;
16159;SDS011;8185;57.818;15.224;2022-09-13T08:26:28;2.00;;;1.90;;
16159;SDS011;8185;57.818;15.224;2022-09-13T08:28:57;2.63;;;2.43;;
16159;SDS011;8185;57.818;15.224;2022-09-13T08:31:25;2.47;;;2.27;;
16159;SDS011;8185;57.818;15.224;2022-09-13T08:33:53;2.97;;;2.77;;
16159;SDS011;8185;57.818;15.224;2022-09-13T08:36:22;3.50;;;2.60;;
16159;SDS011;8185;57.818;15.224;2022-09-13T08:38:51;2.73;;;2.53;;
16159;SDS011;8185;57.818;15.224;2022-09-13T08:44:25;2.50;;;2.30;;
16159;SDS011;8185;57.818;15.224;2022-09-13T08:46:56;2.13;;;1.93;;
16159;SDS011;8185;57.818;15.224;2022-09-13T08:49:31;2.70;;;2.50;;
16159;SDS011;8185;57.818;15.224;2022-09-13T08:52:02;2.13;;;2.03;;
16159;SDS011;8185;57.818;15.224;2022-09-13T08:54:46;2.20;;;2.00;;
16159;SDS011;8185;57.818;15.224;2022-09-13T08:57:15;2.03;;;1.83;;
16159;SDS011;8185;57.818;15.224;2022-09-13T08:59:51;1.90;;;1.67;;
16159;SDS011;8185;57.818;15.224;2022-09-13T09:02:33;2.40;;;1.57;;
16159;SDS011;8185;57.818;15.224;2022-09-13T09:05:14;1.50;;;1.40;;
16159;SDS011;8185;57.818;15.224;2022-09-13T09:07:44;1.57;;;1.47;;
16159;SDS011;8185;57.818;15.224;2022-09-13T09:10:18;1.40;;;1.30;;
16159;SDS011;8185;57.818;15.224;2022-09-13T09:12:49;2.07;;;1.40;;
16159;SDS011;8185;57.818;15.224;2022-09-13T09:15:23;0.97;;;0.97;;
16159;SDS011;8185;57.818;15.224;2022-09-13T09:17:53;2.87;;;1.13;;
16159;SDS011;8185;57.818;15.224;2022-09-13T09:20:25;2.23;;;1.20;;
16159;SDS011;8185;57.818;15.224;2022-09-13T09:22:56;2.50;;;0.93;;
16159;SDS011;8185;57.818;15.224;2022-09-13T09:25:30;2.07;;;1.13;;
16159;SDS011;8185;57.818;15.224;2022-09-13T09:27:59;2.67;;;0.90;;
16159;SDS011;8185;57.818;15.224;2022-09-13T09:30:30;0.80;;;0.80;;
16159;SDS011;8185;57.818;15.224;2022-09-13T09:33:09;1.20;;;1.10;;
16159;SDS011;8185;57.818;15.224;2022-09-13T09:35:50;1.07;;;0.83;;
16159;SDS011;8185;57.818;15.224;2022-09-13T09:38:35;2.73;;;1.03;;
16159;SDS011;8185;57.818;15.224;2022-09-13T09:41:10;1.93;;;0.83;;
16159;SDS011;8185;57.818;15.224;2022-09-13T09:43:45;0.80;;;0.80;;
16159;SDS011;8185;57.818;15.224;2022-09-13T09:46:20;1.63;;;0.83;;
16159;SDS011;8185;57.818;15.224;2022-09-13T09:49:00;1.83;;;0.97;;
16159;SDS011;8185;57.818;15.224;2022-09-13T09:51:53;0.70;;;0.67;;
16159;SDS011;8185;57.818;15.224;2022-09-13T09:54:21;4.27;;;0.90;;
16159;SDS011;8185;57.818;15.224;2022-09-13T09:56:54;1.53;;;0.63;;
16159;SDS011;8185;57.818;15.224;2022-09-13T09:59:25;1.83;;;0.73;;
16159;SDS011;8185;57.818;15.224;2022-09-13T10:01:54;3.07;;;0.70;;
16159;SDS011;8185;57.818;15.224;2022-09-13T10:04:22;2.83;;;0.80;;
16159;SDS011;8185;57.818;15.224;2022-09-13T10:06:51;3.60;;;0.80;;
16159;SDS011;8185;57.818;15.224;2022-09-13T10:09:35;4.00;;;1.10;;
16159;SDS011;8185;57.818;15.224;2022-09-13T10:12:05;2.70;;;1.27;;
16159;SDS011;8185;57.818;15.224;2022-09-13T10:14:36;2.17;;;0.70;;
16159;SDS011;8185;57.818;15.224;2022-09-13T10:17:14;1.17;;;0.80;;
16159;SDS011;8185;57.818;15.224;2022-09-13T10:19:50;2.60;;;1.63;;
16159;SDS011;8185;57.818;15.224;2022-09-13T10:22:18;3.33;;;1.60;;
16159;SDS011;8185;57.818;15.224;2022-09-13T10:24:47;1.50;;;0.83;;
16159;SDS011;8185;57.818;15.224;2022-09-13T10:27:27;2.80;;;2.40;;
16159;SDS011;8185;57.818;15.224;2022-09-13T10:29:58;3.47;;;0.80;;
16159;SDS011;8185;57.818;15.224;2022-09-13T10:32:28;3.47;;;1.47;;
16159;SDS011;8185;57.818;15.224;2022-09-13T10:34:57;3.30;;;1.20;;
16159;SDS011;8185;57.818;15.224;2022-09-13T10:37:28;4.90;;;2.20;;
16159;SDS011;8185;57.818;15.224;2022-09-13T10:40:00;2.73;;;1.63;;
16159;SDS011;8185;57.818;15.224;2022-09-13T10:42:32;4.37;;;2.67;;
16159;SDS011;8185;57.818;15.224;2022-09-13T10:45:01;2.20;;;1.23;;
16159;SDS011;8185;57.818;15.224;2022-09-13T10:47:31;2.60;;;0.70;;
16159;SDS011;8185;57.818;15.224;2022-09-13T10:50:10;3.97;;;1.10;;
16159;SDS011;8185;57.818;15.224;2022-09-13T10:52:45;2.43;;;0.90;;
16159;SDS011;8185;57.818;15.224;2022-09-13T10:55:15;2.17;;;0.50;;
16159;SDS011;8185;57.818;15.224;2022-09-13T10:58:10;2.90;;;0.60;;
16159;SDS011;8185;57.818;15.224;2022-09-13T11:00:43;1.20;;;1.10;;
16159;SDS011;8185;57.818;15.224;2022-09-13T11:03:30;1.77;;;1.00;;
16159;SDS011;8185;57.818;15.224;2022-09-13T11:06:10;4.07;;;0.60;;
16159;SDS011;8185;57.818;15.224;2022-09-13T11:08:47;2.30;;;0.47;;
16159;SDS011;8185;57.818;15.224;2022-09-13T11:11:22;1.30;;;0.60;;
16159;SDS011;8185;57.818;15.224;2022-09-13T11:14:03;2.60;;;1.30;;
16159;SDS011;8185;57.818;15.224;2022-09-13T11:16:45;3.57;;;1.27;;
16159;SDS011;8185;57.818;15.224;2022-09-13T11:19:35;2.33;;;1.87;;
16159;SDS011;8185;57.818;15.224;2022-09-13T11:22:17;4.13;;;1.87;;
16159;SDS011;8185;57.818;15.224;2022-09-13T11:27:56;5.07;;;0.97;;
16159;SDS011;8185;57.818;15.224;2022-09-13T11:30:32;4.60;;;0.50;;
16159;SDS011;8185;57.818;15.224;2022-09-13T11:33:09;2.80;;;0.97;;
16159;SDS011;8185;57.818;15.224;2022-09-13T11:35:47;4.03;;;2.50;;
16159;SDS011;8185;57.818;15.224;2022-09-13T11:38:26;3.43;;;0.67;;
16159;SDS011;8185;57.818;15.224;2022-09-13T11:41:09;2.23;;;2.03;;
16159;SDS011;8185;57.818;15.224;2022-09-13T11:43:50;2.43;;;0.80;;
16159;SDS011;8185;57.818;15.224;2022-09-13T11:46:29;1.43;;;1.10;;
16159;SDS011;8185;57.818;15.224;2022-09-13T11:49:18;3.00;;;1.03;;
16159;SDS011;8185;57.818;15.224;2022-09-13T11:52:08;3.67;;;1.57;;
16159;SDS011;8185;57.818;15.224;2022-09-13T11:54:44;3.10;;;1.20;;
16159;SDS011;8185;57.818;15.224;2022-09-13T11:57:26;1.63;;;0.63;;
16159;SDS011;8185;57.818;15.224;2022-09-13T11:59:59;5.03;;;1.17;;
16159;SDS011;8185;57.818;15.224;2022-09-13T12:02:34;2.33;;;1.20;;
16159;SDS011;8185;57.818;15.224;2022-09-13T12:05:06;1.20;;;0.50;;
16159;SDS011;8185;57.818;15.224;2022-09-13T12:07:41;0.87;;;0.40;;
16159;SDS011;8185;57.818;15.224;2022-09-13T12:10:14;1.87;;;0.40;;
16159;SDS011;8185;57.818;15.224;2022-09-13T12:12:45;1.13;;;0.60;;
16159;SDS011;8185;57.818;15.224;2022-09-13T12:15:17;2.60;;;0.57;;
16159;SDS011;8185;57.818;15.224;2022-09-13T12:17:53;1.90;;;0.80;;
16159;SDS011;8185;57.818;15.224;2022-09-13T12:20:28;1.63;;;0.70;;
16159;SDS011;8185;57.818;15.224;2022-09-13T12:22:58;3.13;;;1.40;;
16159;SDS011;8185;57.818;15.224;2022-09-13T12:25:30;3.70;;;0.67;;
16159;SDS011;8185;57.818;15.224;2022-09-13T12:28:06;3.13;;;1.10;;
16159;SDS011;8185;57.818;15.224;2022-09-13T12:30:43;4.30;;;0.97;;
16159;SDS011;8185;57.818;15.224;2022-09-13T12:33:17;1.80;;;0.93;;
16159;SDS011;8185;57.818;15.224;2022-09-13T12:35:49;3.73;;;2.00;;
16159;SDS011;8185;57.818;15.224;2022-09-13T12:38:50;2.77;;;1.97;;
16159;SDS011;8185;57.818;15.224;2022-09-13T12:41:41;1.67;;;0.70;;
16159;SDS011;8185;57.818;15.224;2022-09-13T12:47:31;3.77;;;1.07;;
16159;SDS011;8185;57.818;15.224;2022-09-13T12:50:14;2.07;;;1.37;;
16159;SDS011;8185;57.818;15.224;2022-09-13T12:53:09;4.47;;;1.57;;
16159;SDS011;8185;57.818;15.224;2022-09-13T12:56:08;2.93;;;1.13;;
16159;SDS011;8185;57.818;15.224;2022-09-13T12:59:02;2.10;;;0.40;;
16159;SDS011;8185;57.818;15.224;2022-09-13T13:01:46;3.00;;;0.60;;
16159;SDS011;8185;57.818;15.224;2022-09-13T13:04:16;2.07;;;0.60;;
16159;SDS011;8185;57.818;15.224;2022-09-13T13:06:49;2.33;;;0.90;;
16159;SDS011;8185;57.818;15.224;2022-09-13T13:09:22;1.20;;;0.40;;
16159;SDS011;8185;57.818;15.224;2022-09-13T13:11:55;3.00;;;1.67;;
16159;SDS011;8185;57.818;15.224;2022-09-13T13:17:36;2.63;;;1.43;;
16159;SDS011;8185;57.818;15.224;2022-09-13T13:26:01;3.77;;;1.30;;
16159;SDS011;8185;57.818;15.224;2022-09-13T13:28:49;2.97;;;1.23;;
16159;SDS011;8185;57.818;15.224;2022-09-13T13:31:32;2.37;;;1.20;;
16159;SDS011;8185;57.818;15.224;2022-09-13T13:34:02;2.33;;;0.90;;
16159;SDS011;8185;57.818;15.224;2022-09-13T13:36:45;3.93;;;0.70;;
16159;SDS011;8185;57.818;15.224;2022-09-13T13:42:21;0.73;;;0.30;;
16159;SDS011;8185;57.818;15.224;2022-09-13T13:50:33;2.10;;;0.87;;
16159;SDS011;8185;57.818;15.224;2022-09-13T13:53:16;2.40;;;0.50;;
16159;SDS011;8185;57.818;15.224;2022-09-13T13:55:48;2.77;;;0.63;;
16159;SDS011;8185;57.818;15.224;2022-09-13T13:58:48;2.00;;;0.70;;
16159;SDS011;8185;57.818;15.224;2022-09-13T14:01:21;0.97;;;0.57;;
16159;SDS011;8185;57.818;15.224;2022-09-13T14:04:02;1.63;;;0.50;;
16159;SDS011;8185;57.818;15.224;2022-09-13T14:06:58;2.77;;;0.70;;
16159;SDS011;8185;57.818;15.224;2022-09-13T14:09:35;3.43;;;0.57;;
16159;SDS011;8185;57.818;15.224;2022-09-13T14:12:15;2.83;;;0.70;;
16159;SDS011;8185;57.818;15.224;2022-09-13T14:15:00;1.27;;;0.50;;
16159;SDS011;8185;57.818;15.224;2022-09-13T14:17:49;2.63;;;0.50;;
16159;SDS011;8185;57.818;15.224;2022-09-13T14:23:23;2.07;;;0.50;;
16159;SDS011;8185;57.818;15.224;2022-09-13T14:25:53;2.93;;;0.60;;
16159;SDS011;8185;57.818;15.224;2022-09-13T14:28:21;2.13;;;0.60;;
16159;SDS011;8185;57.818;15.224;2022-09-13T14:30:52;0.90;;;0.50;;
16159;SDS011;8185;57.818;15.224;2022-09-13T14:33:22;2.07;;;0.63;;
16159;SDS011;8185;57.818;15.224;2022-09-13T14:35:59;4.80;;;0.80;;
16159;SDS011;8185;57.818;15.224;2022-09-13T14:38:29;2.43;;;0.60;;
16159;SDS011;8185;57.818;15.224;2022-09-13T14:41:01;3.50;;;0.70;;
16159;SDS011;8185;57.818;15.224;2022-09-13T14:43:37;1.50;;;0.60;;
16159;SDS011;8185;57.818;15.224;2022-09-13T14:46:06;1.97;;;0.53;;
16159;SDS011;8185;57.818;15.224;2022-09-13T14:48:38;2.83;;;0.50;;
16159;SDS011;8185;57.818;15.224;2022-09-13T14:51:11;2.53;;;0.40;;
16159;SDS011;8185;57.818;15.224;2022-09-13T14:53:44;2.63;;;0.60;;
16159;SDS011;8185;57.818;15.224;2022-09-13T14:56:15;4.50;;;0.50;;
16159;SDS011;8185;57.818;15.224;2022-09-13T14:58:48;2.23;;;0.57;;
16159;SDS011;8185;57.818;15.224;2022-09-13T15:01:26;2.43;;;0.50;;
16159;SDS011;8185;57.818;15.224;2022-09-13T15:03:57;5.20;;;0.90;;
16159;SDS011;8185;57.818;15.224;2022-09-13T15:06:27;5.10;;;0.70;;
16159;SDS011;8185;57.818;15.224;2022-09-13T15:08:56;2.03;;;0.60;;
16159;SDS011;8185;57.818;15.224;2022-09-13T15:11:27;2.67;;;0.60;;
16159;SDS011;8185;57.818;15.224;2022-09-13T15:16:51;1.93;;;0.60;;
16159;SDS011;8185;57.818;15.224;2022-09-13T15:19:32;3.37;;;0.70;;
16159;SDS011;8185;57.818;15.224;2022-09-13T15:24:47;1.67;;;0.63;;
16159;SDS011;8185;57.818;15.224;2022-09-13T15:27:25;1.80;;;0.50;;
16159;SDS011;8185;57.818;15.224;2022-09-13T15:29:54;2.50;;;0.60;;
16159;SDS011;8185;57.818;15.224;2022-09-13T15:32:28;1.50;;;0.50;;
16159;SDS011;8185;57.818;15.224;2022-09-13T15:34:58;3.03;;;0.73;;
16159;SDS011;8185;57.818;15.224;2022-09-13T15:37:27;4.63;;;0.80;;
16159;SDS011;8185;57.818;15.224;2022-09-13T15:40:14;3.43;;;0.80;;
16159;SDS011;8185;57.818;15.224;2022-09-13T15:42:47;3.10;;;0.50;;
16159;SDS011;8185;57.818;15.224;2022-09-13T15:45:15;2.90;;;0.57;;
16159;SDS011;8185;57.818;15.224;2022-09-13T15:47:46;2.70;;;0.70;;
16159;SDS011;8185;57.818;15.224;2022-09-13T15:50:18;2.30;;;0.57;;
16159;SDS011;8185;57.818;15.224;2022-09-13T15:52:47;2.63;;;0.50;;
16159;SDS011;8185;57.818;15.224;2022-09-13T15:55:14;0.97;;;0.50;;
16159;SDS011;8185;57.818;15.224;2022-09-13T15:57:42;1.27;;;0.30;;
16159;SDS011;8185;57.818;15.224;2022-09-13T16:00:14;3.57;;;0.60;;
16159;SDS011;8185;57.818;15.224;2022-09-13T16:02:42;2.97;;;0.70;;